Big Eddie — WDG2850 — position and weather

sailwx.info

Track history (hours):
 
Tides and Currents Weather Stations Pressure Air Temp Water Temp Dewpoint Dewpoint Depression Visibility Wind Speed Wind Dir Waves Ship Positions

Big Eddie

Owner: Crosby Marine Transportaion LLC, Golden Meadow, LA. More information available from US FCC via Universal Licensing System and Coast Guard Vessel Documentation Center.

Last reported at 2017-Sep-13 14:31 UTC. Time now 2017-Sep-22 08:17 UTC.
Position N 29°34' W 090°31'.
Warning: this ship's position is 8 days out of date.

Length 22 m; draft 4 m.

Type: Towing. MMSI: 367519920.

Date/timePositionNaut miles runAvg speedWind from/ knotsBaromVisibWave heightAir tempDewpointWater temp
2017-Sep-13 14:31N 29°34' W 090°31'0 5.2
2017-Sep-13 14:27N 29°34' W 090°31'2 5.1
2017-Sep-13 14:00N 29°34' W 090°34'2 5.0
2017-Sep-13 13:30N 29°35' W 090°37'2 3.0
2017-Sep-13 13:00N 29°35' W 090°38'3 5.1
2017-Sep-13 12:31N 29°36' W 090°41'2 3.2
2017-Sep-13 12:00N 29°36' W 090°43'2 3.3
2017-Sep-13 11:31N 29°34' W 090°43'0 0.6
2017-Sep-13 11:01N 29°34' W 090°43'2 4.8
2017-Sep-13 10:30N 29°33' W 090°45'3 5.9
2017-Sep-13 10:00N 29°32' W 090°49'3 6.3
2017-Sep-13 09:29N 29°32' W 090°53'3 6.4
2017-Sep-13 09:00N 29°34' W 090°56'3 5.8
2017-Sep-13 08:30N 29°36' W 090°58'58 3.5
2017-Sep-12 15:51N 29°49' W 092°03'2 5.0
2017-Sep-12 15:31N 29°48' W 092°05'3 5.0
2017-Sep-12 15:00N 29°47' W 092°08'3 5.1
2017-Sep-12 14:31N 29°47' W 092°11'2 5.0
2017-Sep-12 14:01N 29°48' W 092°14'2 3.5
2017-Sep-12 13:29N 29°48' W 092°16'38 4.7
2017-Sep-12 05:22N 29°56' W 092°59'3 4.7
2017-Sep-12 04:50N 29°56' W 093°02'1 4.5
2017-Sep-12 04:30N 29°56' W 093°03'2 4.4
2017-Sep-12 04:00N 29°56' W 093°06'2 4.5
2017-Sep-12 03:30N 29°56' W 093°09'2 3.5
2017-Sep-12 03:01N 29°57' W 093°10'2 4.3
2017-Sep-12 02:30N 29°59' W 093°12'2 3.2
2017-Sep-12 02:00N 29°60' W 093°13'1 2.5
2017-Sep-12 01:30N 30°01' W 093°14'2 3.7
2017-Sep-12 01:01N 30°02' W 093°15'2 3.9
2017-Sep-12 00:30N 30°04' W 093°16'2 3.8
2017-Sep-12 00:01N 30°05' W 093°18'1 2.4
2017-Sep-11 23:31N 30°06' W 093°19'0 0.1
2017-Sep-11 23:01N 30°06' W 093°19'2 3.3
2017-Sep-11 22:31N 30°05' W 093°20'0 0.9
2017-Sep-11 22:00N 30°04' W 093°20'0 0.3
2017-Sep-11 21:31N 30°04' W 093°20'0 0.2
2017-Sep-11 21:00N 30°04' W 093°20'0 0.2
2017-Sep-11 20:30N 30°04' W 093°20'0 0.0
2017-Sep-11 20:00N 30°04' W 093°20'0 0.0
2017-Sep-11 19:30N 30°04' W 093°20'0 0.0
2017-Sep-11 19:01N 30°04' W 093°20'0 0.0
2017-Sep-11 18:31N 30°04' W 093°20'0 0.0
2017-Sep-11 18:01N 30°04' W 093°20'0 0.0
2017-Sep-11 17:31N 30°04' W 093°20'0 0.0
2017-Sep-11 17:00N 30°04' W 093°20'0 0.1
2017-Sep-11 16:30N 30°04' W 093°20'0 0.3
2017-Sep-11 16:01N 30°04' W 093°20'0 0.0
2017-Sep-11 15:31N 30°04' W 093°20'0 0.2
2017-Sep-11 14:52N 30°04' W 093°20'0 0.0
2017-Sep-11 14:30N 30°04' W 093°20'0 0.2
2017-Sep-11 14:01N 30°04' W 093°20'0 0.2
2017-Sep-11 13:28N 30°04' W 093°20'0 0.0
2017-Sep-11 12:01N 30°04' W 093°20'0 0.0
2017-Sep-11 12:01N 30°04' W 093°20'0 0.0
2017-Sep-11 11:28N 30°04' W 093°20'0 0.0
2017-Sep-11 11:00N 30°04' W 093°20'1 2.3
2017-Sep-11 10:30N 30°05' W 093°20'4 6.4
2017-Sep-11 09:57N 30°04' W 093°23'4 8.2
2017-Sep-11 09:31N 30°04' W 093°27'4 8.3
2017-Sep-11 08:59N 30°04' W 093°32'10 1.7
2017-Sep-11 03:02N 30°03' W 093°44'1 6.3
2017-Sep-11 02:55N 30°03' W 093°43'4 3.5
2017-Sep-11 01:44N 30°04' W 093°39'2 3.9
2017-Sep-11 01:21N 30°04' W 093°37'2 2.8
2017-Sep-11 00:38N 30°04' W 093°34'0 2.9
2017-Sep-11 00:28N 30°04' W 093°34'1 2.8
2017-Sep-11 00:00N 30°04' W 093°32'1 2.8
2017-Sep-10 23:30N 30°04' W 093°31'1 2.7
2017-Sep-10 23:00N 30°04' W 093°29'1 2.6
2017-Sep-10 22:30N 30°04' W 093°28'1 2.6
2017-Sep-10 22:00N 30°04' W 093°26'1 2.5
2017-Sep-10 21:30N 30°04' W 093°25'1 2.5
2017-Sep-10 21:00N 30°04' W 093°23'1 2.4
2017-Sep-10 20:30N 30°04' W 093°22'1 2.5
2017-Sep-10 20:01N 30°04' W 093°21'1 1.6
2017-Sep-10 19:31N 30°05' W 093°20'1 1.1
2017-Sep-10 19:01N 30°05' W 093°20'1 1.4
2017-Sep-10 18:31N 30°04' W 093°20'0 0.2
2017-Sep-10 18:01N 30°04' W 093°20'0 0.1
2017-Sep-10 17:31N 30°04' W 093°20'0 0.6
2017-Sep-10 17:01N 30°04' W 093°20'0 0.0
2017-Sep-10 16:31N 30°04' W 093°20'1 1.8
2017-Sep-10 16:01N 30°05' W 093°20'2 4.3
2017-Sep-10 15:30N 30°04' W 093°21'2 3.1
2017-Sep-10 15:00N 30°04' W 093°23'3 3.0
2017-Sep-10 14:01N 30°04' W 093°27'15 3.5
2017-Sep-10 09:44N 30°03' W 093°44'0 0.0
2017-Sep-10 09:28N 30°03' W 093°44'0 0.0
2017-Sep-10 07:22N 30°03' W 093°44'0 0.0
2017-Sep-10 06:57N 30°03' W 093°44'0 0.0
2017-Sep-10 06:15N 30°03' W 093°44'0 0.0
2017-Sep-10 05:59N 30°03' W 093°44'0 0.0
2017-Sep-10 05:26N 30°03' W 093°44'0 0.0
2017-Sep-10 05:00N 30°03' W 093°44'0 0.0
2017-Sep-10 04:30N 30°03' W 093°44'0 0.0
2017-Sep-10 03:58N 30°03' W 093°44'0 0.0
2017-Sep-10 03:29N 30°03' W 093°44'0 0.0
2017-Sep-10 03:01N 30°03' W 093°44'0 0.0
2017-Sep-10 02:30N 30°03' W 093°44'0 0.0
2017-Sep-10 01:58N 30°03' W 093°44'0 0.0
2017-Sep-10 01:31N 30°03' W 093°44'9 0.3
2017-Sep-08 16:45N 30°04' W 093°33'1 4.3
2017-Sep-08 16:28N 30°04' W 093°32'2 4.3
2017-Sep-08 16:00N 30°04' W 093°30'2 4.1
2017-Sep-08 15:30N 30°04' W 093°27'2 4.0
2017-Sep-08 15:00N 30°04' W 093°25'2 4.1
2017-Sep-08 14:30N 30°04' W 093°23'2 3.2
2017-Sep-08 14:00N 30°04' W 093°21'1 2.4
2017-Sep-08 13:30N 30°05' W 093°20'0 0.1
2017-Sep-08 13:00N 30°05' W 093°20'0 0.0
2017-Sep-08 12:30N 30°05' W 093°20'0 0.0
2017-Sep-08 12:00N 30°05' W 093°20'0 0.0
2017-Sep-08 11:30N 30°05' W 093°20'0 0.0
2017-Sep-08 09:54N 30°05' W 093°20'0 0.0
2017-Sep-08 08:48N 30°05' W 093°20'0 0.0
2017-Sep-08 08:18N 30°05' W 093°20'0 0.0
2017-Sep-08 07:55N 30°05' W 093°20'0 0.0
2017-Sep-08 07:30N 30°05' W 093°20'0 0.0
2017-Sep-08 06:44N 30°05' W 093°20'0 0.0
2017-Sep-08 06:16N 30°05' W 093°20'0 0.0
2017-Sep-08 04:57N 30°05' W 093°20'0 0.0
2017-Sep-08 03:53N 30°05' W 093°20'0 0.0
2017-Sep-08 03:06N 30°05' W 093°20'0 0.0
2017-Sep-08 02:38N 30°05' W 093°20'0 0.0
2017-Sep-08 02:17N 30°05' W 093°20'0 0.0
2017-Sep-08 02:00N 30°05' W 093°20'0 0.0
2017-Sep-08 01:30N 30°05' W 093°20'0 0.0
2017-Sep-08 01:00N 30°05' W 093°20'0 0.0
2017-Sep-08 00:30N 30°05' W 093°20'0 0.0
2017-Sep-08 00:00N 30°05' W 093°20'0 0.0
2017-Sep-07 23:30N 30°05' W 093°20'0 0.0
2017-Sep-07 23:00N 30°05' W 093°20'0 0.0
2017-Sep-07 22:30N 30°05' W 093°20'2 4.2
2017-Sep-07 22:00N 30°06' W 093°18'0 0.0
2017-Sep-07 21:30N 30°06' W 093°18'0 0.0
2017-Sep-07 21:00N 30°06' W 093°18'0 0.1
2017-Sep-07 20:30N 30°06' W 093°18'0 0.0
2017-Sep-07 20:00N 30°06' W 093°18'0 0.0
2017-Sep-07 19:30N 30°06' W 093°18'0 0.0
2017-Sep-07 19:00N 30°06' W 093°18'0 0.1
2017-Sep-07 18:30N 30°06' W 093°18'1 2.9
2017-Sep-07 18:00N 30°05' W 093°20'4 7.2
2017-Sep-07 17:30N 30°04' W 093°23'5 9.4
2017-Sep-07 17:00N 30°04' W 093°29'14 1.2
2017-Sep-07 05:29N 30°02' W 093°44'3 4.7
2017-Sep-07 04:50N 30°04' W 093°42'1 3.7
2017-Sep-07 04:30N 30°04' W 093°40'2 3.4
2017-Sep-07 04:00N 30°04' W 093°38'2 3.1
2017-Sep-07 03:30N 30°04' W 093°37'2 3.3
2017-Sep-07 03:00N 30°04' W 093°35'1 2.6
2017-Sep-07 02:30N 30°04' W 093°33'1 2.4
2017-Sep-07 02:00N 30°04' W 093°32'1 2.2
2017-Sep-07 01:30N 30°04' W 093°30'1 2.0
2017-Sep-07 01:00N 30°04' W 093°29'1 1.9
2017-Sep-07 00:30N 30°04' W 093°28'1 1.9
2017-Sep-07 00:00N 30°04' W 093°27'0 0.2
2017-Sep-06 23:30N 30°04' W 093°27'0 0.1
2017-Sep-06 23:00N 30°04' W 093°27'0 0.1
2017-Sep-06 22:30N 30°04' W 093°27'1 1.2
2017-Sep-06 22:00N 30°04' W 093°28'0 0.7
2017-Sep-06 21:30N 30°04' W 093°28'0 0.1
2017-Sep-06 21:00N 30°04' W 093°28'1 1.2
2017-Sep-06 20:30N 30°04' W 093°29'0 0.4
2017-Sep-06 20:00N 30°04' W 093°29'0 0.9
2017-Sep-06 19:30N 30°04' W 093°30'0 0.4
2017-Sep-06 19:00N 30°04' W 093°30'0 0.8
2017-Sep-06 18:30N 30°04' W 093°31'  
Track history (hours):
 
Tides and Currents Weather Stations Pressure Air Temp Water Temp Dewpoint Dewpoint Depression Visibility Wind Speed Wind Dir Waves Ship Positions

Big Eddie

Owner: Crosby Marine Transportaion LLC, Golden Meadow, LA. More information available from US FCC via Universal Licensing System and Coast Guard Vessel Documentation Center.

Last reported at 2017-Sep-13 14:31 UTC. Time now 2017-Sep-22 08:17 UTC.
Position N 29°34' W 090°31'.
Warning: this ship's position is 8 days out of date.

Length 22 m; draft 4 m.

Type: Towing. MMSI: 367519920.

Date/timePositionNaut miles runAvg speedWind from/ knotsBaromVisibWave heightAir tempDewpointWater temp
2017-Sep-13 14:31N 29°34' W 090°31'0 5.2
2017-Sep-13 14:27N 29°34' W 090°31'2 5.1
2017-Sep-13 14:00N 29°34' W 090°34'2 5.0
2017-Sep-13 13:30N 29°35' W 090°37'2 3.0
2017-Sep-13 13:00N 29°35' W 090°38'3 5.1
2017-Sep-13 12:31N 29°36' W 090°41'2 3.2
2017-Sep-13 12:00N 29°36' W 090°43'2 3.3
2017-Sep-13 11:31N 29°34' W 090°43'0 0.6
2017-Sep-13 11:01N 29°34' W 090°43'2 4.8
2017-Sep-13 10:30N 29°33' W 090°45'3 5.9
2017-Sep-13 10:00N 29°32' W 090°49'3 6.3
2017-Sep-13 09:29N 29°32' W 090°53'3 6.4
2017-Sep-13 09:00N 29°34' W 090°56'3 5.8
2017-Sep-13 08:30N 29°36' W 090°58'58 3.5
2017-Sep-12 15:51N 29°49' W 092°03'2 5.0
2017-Sep-12 15:31N 29°48' W 092°05'3 5.0
2017-Sep-12 15:00N 29°47' W 092°08'3 5.1
2017-Sep-12 14:31N 29°47' W 092°11'2 5.0
2017-Sep-12 14:01N 29°48' W 092°14'2 3.5
2017-Sep-12 13:29N 29°48' W 092°16'38 4.7
2017-Sep-12 05:22N 29°56' W 092°59'3 4.7
2017-Sep-12 04:50N 29°56' W 093°02'1 4.5
2017-Sep-12 04:30N 29°56' W 093°03'2 4.4
2017-Sep-12 04:00N 29°56' W 093°06'2 4.5
2017-Sep-12 03:30N 29°56' W 093°09'2 3.5
2017-Sep-12 03:01N 29°57' W 093°10'2 4.3
2017-Sep-12 02:30N 29°59' W 093°12'2 3.2
2017-Sep-12 02:00N 29°60' W 093°13'1 2.5
2017-Sep-12 01:30N 30°01' W 093°14'2 3.7
2017-Sep-12 01:01N 30°02' W 093°15'2 3.9
2017-Sep-12 00:30N 30°04' W 093°16'2 3.8
2017-Sep-12 00:01N 30°05' W 093°18'1 2.4
2017-Sep-11 23:31N 30°06' W 093°19'0 0.1
2017-Sep-11 23:01N 30°06' W 093°19'2 3.3
2017-Sep-11 22:31N 30°05' W 093°20'0 0.9
2017-Sep-11 22:00N 30°04' W 093°20'0 0.3
2017-Sep-11 21:31N 30°04' W 093°20'0 0.2
2017-Sep-11 21:00N 30°04' W 093°20'0 0.2
2017-Sep-11 20:30N 30°04' W 093°20'0 0.0
2017-Sep-11 20:00N 30°04' W 093°20'0 0.0
2017-Sep-11 19:30N 30°04' W 093°20'0 0.0
2017-Sep-11 19:01N 30°04' W 093°20'0 0.0
2017-Sep-11 18:31N 30°04' W 093°20'0 0.0
2017-Sep-11 18:01N 30°04' W 093°20'0 0.0
2017-Sep-11 17:31N 30°04' W 093°20'0 0.0
2017-Sep-11 17:00N 30°04' W 093°20'0 0.1
2017-Sep-11 16:30N 30°04' W 093°20'0 0.3
2017-Sep-11 16:01N 30°04' W 093°20'0 0.0
2017-Sep-11 15:31N 30°04' W 093°20'0 0.2
2017-Sep-11 14:52N 30°04' W 093°20'0 0.0
2017-Sep-11 14:30N 30°04' W 093°20'0 0.2
2017-Sep-11 14:01N 30°04' W 093°20'0 0.2
2017-Sep-11 13:28N 30°04' W 093°20'0 0.0
2017-Sep-11 12:01N 30°04' W 093°20'0 0.0
2017-Sep-11 12:01N 30°04' W 093°20'0 0.0
2017-Sep-11 11:28N 30°04' W 093°20'0 0.0
2017-Sep-11 11:00N 30°04' W 093°20'1 2.3
2017-Sep-11 10:30N 30°05' W 093°20'4 6.4
2017-Sep-11 09:57N 30°04' W 093°23'4 8.2
2017-Sep-11 09:31N 30°04' W 093°27'4 8.3
2017-Sep-11 08:59N 30°04' W 093°32'10 1.7
2017-Sep-11 03:02N 30°03' W 093°44'1 6.3
2017-Sep-11 02:55N 30°03' W 093°43'4 3.5
2017-Sep-11 01:44N 30°04' W 093°39'2 3.9
2017-Sep-11 01:21N 30°04' W 093°37'2 2.8
2017-Sep-11 00:38N 30°04' W 093°34'0 2.9
2017-Sep-11 00:28N 30°04' W 093°34'1 2.8
2017-Sep-11 00:00N 30°04' W 093°32'1 2.8
2017-Sep-10 23:30N 30°04' W 093°31'1 2.7
2017-Sep-10 23:00N 30°04' W 093°29'1 2.6
2017-Sep-10 22:30N 30°04' W 093°28'1 2.6
2017-Sep-10 22:00N 30°04' W 093°26'1 2.5
2017-Sep-10 21:30N 30°04' W 093°25'1 2.5
2017-Sep-10 21:00N 30°04' W 093°23'1 2.4
2017-Sep-10 20:30N 30°04' W 093°22'1 2.5
2017-Sep-10 20:01N 30°04' W 093°21'1 1.6
2017-Sep-10 19:31N 30°05' W 093°20'1 1.1
2017-Sep-10 19:01N 30°05' W 093°20'1 1.4
2017-Sep-10 18:31N 30°04' W 093°20'0 0.2
2017-Sep-10 18:01N 30°04' W 093°20'0 0.1
2017-Sep-10 17:31N 30°04' W 093°20'0 0.6
2017-Sep-10 17:01N 30°04' W 093°20'0 0.0
2017-Sep-10 16:31N 30°04' W 093°20'1 1.8
2017-Sep-10 16:01N 30°05' W 093°20'2 4.3
2017-Sep-10 15:30N 30°04' W 093°21'2 3.1
2017-Sep-10 15:00N 30°04' W 093°23'3 3.0
2017-Sep-10 14:01N 30°04' W 093°27'15 3.5
2017-Sep-10 09:44N 30°03' W 093°44'0 0.0
2017-Sep-10 09:28N 30°03' W 093°44'0 0.0
2017-Sep-10 07:22N 30°03' W 093°44'0 0.0
2017-Sep-10 06:57N 30°03' W 093°44'0 0.0
2017-Sep-10 06:15N 30°03' W 093°44'0 0.0
2017-Sep-10 05:59N 30°03' W 093°44'0 0.0
2017-Sep-10 05:26N 30°03' W 093°44'0 0.0
2017-Sep-10 05:00N 30°03' W 093°44'0 0.0
2017-Sep-10 04:30N 30°03' W 093°44'0 0.0
2017-Sep-10 03:58N 30°03' W 093°44'0 0.0
2017-Sep-10 03:29N 30°03' W 093°44'0 0.0
2017-Sep-10 03:01N 30°03' W 093°44'0 0.0
2017-Sep-10 02:30N 30°03' W 093°44'0 0.0
2017-Sep-10 01:58N 30°03' W 093°44'0 0.0
2017-Sep-10 01:31N 30°03' W 093°44'9 0.3
2017-Sep-08 16:45N 30°04' W 093°33'1 4.3
2017-Sep-08 16:28N 30°04' W 093°32'2 4.3
2017-Sep-08 16:00N 30°04' W 093°30'2 4.1
2017-Sep-08 15:30N 30°04' W 093°27'2 4.0
2017-Sep-08 15:00N 30°04' W 093°25'2 4.1
2017-Sep-08 14:30N 30°04' W 093°23'2 3.2
2017-Sep-08 14:00N 30°04' W 093°21'1 2.4
2017-Sep-08 13:30N 30°05' W 093°20'0 0.1
2017-Sep-08 13:00N 30°05' W 093°20'0 0.0
2017-Sep-08 12:30N 30°05' W 093°20'0 0.0
2017-Sep-08 12:00N 30°05' W 093°20'0 0.0
2017-Sep-08 11:30N 30°05' W 093°20'0 0.0
2017-Sep-08 09:54N 30°05' W 093°20'0 0.0
2017-Sep-08 08:48N 30°05' W 093°20'0 0.0
2017-Sep-08 08:18N 30°05' W 093°20'0 0.0
2017-Sep-08 07:55N 30°05' W 093°20'0 0.0
2017-Sep-08 07:30N 30°05' W 093°20'0 0.0
2017-Sep-08 06:44N 30°05' W 093°20'0 0.0
2017-Sep-08 06:16N 30°05' W 093°20'0 0.0
2017-Sep-08 04:57N 30°05' W 093°20'0 0.0
2017-Sep-08 03:53N 30°05' W 093°20'0 0.0
2017-Sep-08 03:06N 30°05' W 093°20'0 0.0
2017-Sep-08 02:38N 30°05' W 093°20'0 0.0
2017-Sep-08 02:17N 30°05' W 093°20'0 0.0
2017-Sep-08 02:00N 30°05' W 093°20'0 0.0
2017-Sep-08 01:30N 30°05' W 093°20'0 0.0
2017-Sep-08 01:00N 30°05' W 093°20'0 0.0
2017-Sep-08 00:30N 30°05' W 093°20'0 0.0
2017-Sep-08 00:00N 30°05' W 093°20'0 0.0
2017-Sep-07 23:30N 30°05' W 093°20'0 0.0
2017-Sep-07 23:00N 30°05' W 093°20'0 0.0
2017-Sep-07 22:30N 30°05' W 093°20'2 4.2
2017-Sep-07 22:00N 30°06' W 093°18'0 0.0
2017-Sep-07 21:30N 30°06' W 093°18'0 0.0
2017-Sep-07 21:00N 30°06' W 093°18'0 0.1
2017-Sep-07 20:30N 30°06' W 093°18'0 0.0
2017-Sep-07 20:00N 30°06' W 093°18'0 0.0
2017-Sep-07 19:30N 30°06' W 093°18'0 0.0
2017-Sep-07 19:00N 30°06' W 093°18'0 0.1
2017-Sep-07 18:30N 30°06' W 093°18'1 2.9
2017-Sep-07 18:00N 30°05' W 093°20'4 7.2
2017-Sep-07 17:30N 30°04' W 093°23'5 9.4
2017-Sep-07 17:00N 30°04' W 093°29'14 1.2
2017-Sep-07 05:29N 30°02' W 093°44'3 4.7
2017-Sep-07 04:50N 30°04' W 093°42'1 3.7
2017-Sep-07 04:30N 30°04' W 093°40'2 3.4
2017-Sep-07 04:00N 30°04' W 093°38'2 3.1
2017-Sep-07 03:30N 30°04' W 093°37'2 3.3
2017-Sep-07 03:00N 30°04' W 093°35'1 2.6
2017-Sep-07 02:30N 30°04' W 093°33'1 2.4
2017-Sep-07 02:00N 30°04' W 093°32'1 2.2
2017-Sep-07 01:30N 30°04' W 093°30'1 2.0
2017-Sep-07 01:00N 30°04' W 093°29'1 1.9
2017-Sep-07 00:30N 30°04' W 093°28'1 1.9
2017-Sep-07 00:00N 30°04' W 093°27'0 0.2
2017-Sep-06 23:30N 30°04' W 093°27'0 0.1
2017-Sep-06 23:00N 30°04' W 093°27'0 0.1
2017-Sep-06 22:30N 30°04' W 093°27'1 1.2
2017-Sep-06 22:00N 30°04' W 093°28'0 0.7
2017-Sep-06 21:30N 30°04' W 093°28'0 0.1
2017-Sep-06 21:00N 30°04' W 093°28'1 1.2
2017-Sep-06 20:30N 30°04' W 093°29'0 0.4
2017-Sep-06 20:00N 30°04' W 093°29'0 0.9
2017-Sep-06 19:30N 30°04' W 093°30'0 0.4
2017-Sep-06 19:00N 30°04' W 093°30'0 0.8
2017-Sep-06 18:30N 30°04' W 093°31'  

Dump ship's entire track history